EGAE/LDY METAR and TAF weather

Enter ICAO airport designator
Station Type Date Time Source
EGAE METAR 2020/12/04 18:20 UTC NOAA

EGAE 041820Z 36024G38KT 9999 -RA FEW015 BKN022 08/06 Q0988


Station Type Date Time Source
EGAE Decoded METAR 2020/12/04 18:20 UTC NOAA

Eglinton / Londonderr, United Kingdom (EGAE) 55-03N 007-09W
Dec 04, 2020 - 01:20 PM EST / 2020.12.04 1820 UTC
Wind: from the N (360 degrees) at 28 MPH (24 KT) gusting to 44 MPH (38 KT):0
Visibility: greater than 7 mile(s):0
Sky conditions: mostly cloudy
Weather: light rain
Temperature: 46 F (8 C)
Dew Point: 42 F (6 C)
Relative Humidity: 87%
Pressure (altimeter): 29.18 in. Hg (0988 hPa)
ob: EGAE 041820Z 36024G38KT 9999 -RA FEW015 BKN022 08/06 Q0988
cycle: 18

Station Type Date Time Source
EGAE TAF UTC NOAA

Error!

Example: see airport list